Time;durP1;ratioP1;P1;durP2;ratioP2;P2;SDS_P1;SDS_P2;PMS_P1;PMS_P2;Temp;Humidity;BMP_temperature;BMP_pressure;BME280_temperature;BME280_humidity;BME280_pressure;Samples;Min_cycle;Max_cycle;Signal;HPM_P1;HPM_P2
2022/01/22 00:00:41;;;;;;;13.90;1.77;;;6.30;99.90;;;;;;5068599;28;20163;-74
2022/01/22 00:03:07;;;;;;;16.33;1.33;;;6.30;99.90;;;;;;5063868;28;20127;-74
2022/01/22 00:05:33;;;;;;;16.27;1.05;;;6.30;99.90;;;;;;5068280;28;20474;-78
2022/01/22 00:07:58;;;;;;;18.58;1.55;;;6.30;99.90;;;;;;5040209;28;20047;-78
2022/01/22 00:10:24;;;;;;;13.18;1.63;;;6.30;99.90;;;;;;5050092;28;20501;-79
2022/01/22 00:15:22;;;;;;;15.43;1.05;;;6.30;99.90;;;;;;5068375;28;20519;-73
2022/01/22 00:17:48;;;;;;;11.90;1.00;;;6.30;99.90;;;;;;5068759;28;20053;-79
2022/01/22 00:20:17;;;;;;;22.75;1.67;;;6.40;99.90;;;;;;5068553;28;20482;-80
2022/01/22 00:22:43;;;;;;;16.88;1.08;;;6.40;99.90;;;;;;5051455;28;20132;-81
2022/01/22 00:25:10;;;;;;;9.25;0.93;;;6.40;99.90;;;;;;5052010;28;20086;-74
2022/01/22 00:27:38;;;;;;;16.65;1.33;;;6.40;99.90;;;;;;5044180;28;20041;-75
2022/01/22 00:30:06;;;;;;;15.13;0.90;;;6.40;99.90;;;;;;5052430;28;20488;-76
2022/01/22 00:32:32;;;;;;;13.93;1.20;;;6.40;99.90;;;;;;5068634;28;20052;-80
2022/01/22 00:34:58;;;;;;;13.32;0.88;;;6.40;99.90;;;;;;5072688;28;20036;-74
2022/01/22 00:37:23;;;;;;;13.95;0.70;;;6.40;99.90;;;;;;5054739;28;20063;-80
2022/01/22 00:39:49;;;;;;;11.85;1.33;;;6.50;99.90;;;;;;5072316;28;20048;-80
2022/01/22 00:42:16;;;;;;;13.45;1.30;;;6.50;99.90;;;;;;5072304;28;20094;-81
2022/01/22 00:44:42;;;;;;;11.23;0.63;;;6.50;99.90;;;;;;5054862;28;20040;-85
2022/01/22 00:47:09;;;;;;;17.35;0.98;;;6.50;99.90;;;;;;5074260;28;20051;-79
2022/01/22 00:49:36;;;;;;;12.60;1.05;;;6.50;99.90;;;;;;5075741;28;20103;-77
2022/01/22 00:52:04;;;;;;;12.07;0.82;;;6.50;99.90;;;;;;5075087;28;20040;-72
2022/01/22 00:54:30;;;;;;;13.98;0.80;;;6.60;99.90;;;;;;5075582;28;20118;-83
2022/01/22 00:56:56;;;;;;;7.97;0.73;;;6.60;99.90;;;;;;5074872;28;20081;-75
2022/01/22 00:59:21;;;;;;;15.77;1.20;;;6.60;99.90;;;;;;5042838;28;20157;-82
2022/01/22 01:01:47;;;;;;;15.30;0.57;;;6.60;99.90;;;;;;5038972;28;20128;-80
2022/01/22 01:04:13;;;;;;;11.80;0.90;;;6.60;99.90;;;;;;5072211;28;20040;-83
2022/01/22 01:06:39;;;;;;;9.32;0.95;;;6.60;99.90;;;;;;5059296;28;20127;-82
2022/01/22 01:09:08;;;;;;;10.18;0.95;;;6.60;99.90;;;;;;5093755;28;20119;-71
2022/01/22 01:11:37;;;;;;;12.00;0.80;;;6.60;99.90;;;;;;5074593;28;20058;-82
2022/01/22 01:14:06;;;;;;;10.30;0.70;;;6.60;99.90;;;;;;5074954;28;20105;-79
2022/01/22 01:32:55;;;;;;;9.25;0.75;;;6.70;99.90;;;;;;5073838;28;20036;-76
2022/01/22 01:35:22;;;;;;;11.80;0.85;;;6.70;99.90;;;;;;5075178;28;20101;-71
2022/01/22 01:37:49;;;;;;;18.48;1.27;;;6.70;99.90;;;;;;5074275;28;20093;-71
2022/01/22 01:40:18;;;;;;;12.35;0.73;;;6.70;99.90;;;;;;5074386;28;20086;-77
2022/01/22 01:43:03;;;;;;;11.82;1.10;;;6.70;99.90;;;;;;5073913;28;20538;-76
2022/01/22 01:45:29;;;;;;;8.80;0.70;;;6.70;99.90;;;;;;5073536;28;20412;-72
2022/01/22 01:48:05;;;;;;;13.52;0.60;;;6.70;99.90;;;;;;5073636;28;20420;-72
2022/01/22 01:50:33;;;;;;;14.93;0.98;;;6.70;99.90;;;;;;5073855;28;20052;-78
2022/01/22 01:53:26;;;;;;;13.43;0.80;;;6.80;99.90;;;;;;5074200;28;20056;-73
2022/01/22 01:58:28;;;;;;;9.13;0.63;;;6.70;99.90;;;;;;5074231;28;20068;-79
2022/01/22 02:00:54;;;;;;;9.32;0.60;;;6.70;99.90;;;;;;5073823;28;20101;-77
2022/01/22 02:03:19;;;;;;;13.32;1.05;;;6.70;99.90;;;;;;5074234;28;20539;-78
2022/01/22 02:05:45;;;;;;;11.20;0.93;;;6.70;99.90;;;;;;5074077;28;20055;-74
2022/01/22 02:08:13;;;;;;;9.50;0.98;;;6.70;99.90;;;;;;5056650;28;20408;-78
2022/01/22 02:10:45;;;;;;;10.13;0.85;;;6.70;99.90;;;;;;5074423;28;20429;-78
2022/01/22 02:24:11;;;;;;;12.38;0.65;;;6.70;99.90;;;;;;5073762;28;20408;-77
2022/01/22 02:26:37;;;;;;;13.15;0.93;;;6.80;99.90;;;;;;5057224;28;20376;-77
2022/01/22 02:29:03;;;;;;;11.02;1.05;;;6.80;99.90;;;;;;5073361;28;20040;-71
2022/01/22 02:31:37;;;;;;;12.20;0.90;;;6.80;99.90;;;;;;5056930;28;20488;-80
2022/01/22 02:34:17;;;;;;;8.18;0.73;;;6.70;99.90;;;;;;5073095;28;20044;-79
2022/01/22 02:39:44;;;;;;;10.38;0.70;;;6.70;99.90;;;;;;5073131;28;20047;-79
2022/01/22 02:42:10;;;;;;;7.18;1.00;;;6.70;99.90;;;;;;5056776;28;20085;-82
2022/01/22 02:44:43;;;;;;;9.20;0.63;;;6.70;99.90;;;;;;5072752;28;20047;-70
2022/01/22 02:47:10;;;;;;;11.23;0.60;;;6.70;99.90;;;;;;5073767;28;20101;-70
2022/01/22 02:49:37;;;;;;;11.80;1.10;;;6.70;99.90;;;;;;5072842;28;20039;-70
2022/01/22 02:52:10;;;;;;;13.13;0.73;;;6.70;99.90;;;;;;5091753;28;20862;-70
2022/01/22 02:54:36;;;;;;;;;;;6.70;99.90;;;;;;5074029;28;20051;-72
2022/01/22 02:57:02;;;;;;;7.65;0.80;;;6.70;99.90;;;;;;5090686;28;20372;-69
2022/01/22 02:59:28;;;;;;;9.32;0.70;;;6.70;99.90;;;;;;5072790;28;20051;-75
2022/01/22 03:01:54;;;;;;;9.25;0.77;;;6.70;99.90;;;;;;5073154;28;20083;-79
2022/01/22 03:04:20;;;;;;;5.43;0.45;;;6.60;99.90;;;;;;5072301;28;20055;-78
2022/01/22 03:06:47;;;;;;;14.05;0.82;;;6.70;99.90;;;;;;5073569;28;20052;-70
2022/01/22 03:09:16;;;;;;;9.35;0.93;;;6.70;99.90;;;;;;5072803;28;20486;-77
2022/01/22 03:12:13;;;;;;;8.95;0.55;;;6.60;99.90;;;;;;5072908;28;20048;-78
2022/01/22 03:15:27;;;;;;;4.75;0.45;;;6.60;99.90;;;;;;5072732;28;20048;-71
2022/01/22 03:28:00;;;;;;;5.22;0.50;;;6.50;99.90;;;;;;5072652;28;20408;-78
2022/01/22 03:30:26;;;;;;;7.45;0.50;;;6.50;99.90;;;;;;5072794;28;20043;-71
2022/01/22 03:32:54;;;;;;;3.65;0.30;;;6.50;99.90;;;;;;5072278;28;20443;-79
2022/01/22 03:37:53;;;;;;;7.72;0.70;;;6.50;99.90;;;;;;5072897;28;20121;-71
2022/01/22 03:40:23;;;;;;;6.90;0.30;;;6.60;99.90;;;;;;5072135;28;20075;-73
2022/01/22 03:42:50;;;;;;;4.38;0.30;;;6.60;99.90;;;;;;5072304;28;20040;-80
2022/01/22 03:45:17;;;;;;;3.85;0.43;;;6.60;99.90;;;;;;5055976;28;20036;-73
2022/01/22 03:47:43;;;;;;;9.23;0.52;;;6.60;99.90;;;;;;5055260;28;20125;-80
2022/01/22 03:50:11;;;;;;;3.25;0.30;;;6.50;99.90;;;;;;5072856;28;20439;-80
2022/01/22 03:52:37;;;;;;;1.63;0.28;;;6.60;99.90;;;;;;5056326;28;20032;-79
2022/01/22 03:55:06;;;;;;;7.00;0.57;;;6.50;99.90;;;;;;5072090;28;20791;-79
2022/01/22 03:57:31;;;;;;;5.07;0.20;;;6.60;99.90;;;;;;5055141;28;20485;-83
2022/01/22 03:59:57;;;;;;;2.53;0.20;;;6.60;99.90;;;;;;5071784;28;20070;-81
2022/01/22 04:05:02;;;;;;;2.67;0.40;;;6.60;99.90;;;;;;5072532;28;20056;-80
2022/01/22 04:08:06;;;;;;;2.53;0.30;;;6.60;99.90;;;;;;5072466;28;20048;-81
2022/01/22 04:10:24;;;;;;;3.08;0.32;;;6.50;99.90;;;;;;5076387;28;20079;-71
2022/01/22 04:12:59;;;;;;;3.65;0.50;;;6.60;99.90;;;;;;5076226;28;20048;-82
2022/01/22 04:15:27;;;;;;;6.88;0.70;;;6.60;99.90;;;;;;5055588;28;20109;-81
2022/01/22 04:26:27;;;;;;;3.55;0.60;;;6.60;99.90;;;;;;5076505;28;20048;-74
2022/01/22 04:28:53;;;;;;;5.32;0.43;;;6.50;99.90;;;;;;5074882;28;20055;-82
2022/01/22 04:31:19;;;;;;;3.33;0.60;;;6.50;99.90;;;;;;5059609;28;20126;-80
2022/01/22 04:33:45;;;;;;;6.40;0.47;;;6.60;99.90;;;;;;5075624;28;20584;-81
2022/01/22 04:36:11;;;;;;;5.03;0.60;;;6.60;99.90;;;;;;5058856;28;20131;-82
2022/01/22 04:38:38;;;;;;;5.13;0.50;;;6.60;99.90;;;;;;5055355;28;20047;-81
2022/01/22 04:41:05;;;;;;;3.75;0.50;;;6.50;99.90;;;;;;5075252;28;20040;-81
2022/01/22 04:43:33;;;;;;;3.20;0.38;;;6.50;99.90;;;;;;5058510;28;20063;-75
2022/01/22 04:46:19;;;;;;;6.03;0.77;;;6.50;99.90;;;;;;5048910;28;20044;-86
2022/01/22 04:49:04;;;;;;;8.95;0.60;;;6.50;99.90;;;;;;5051990;28;20466;-86
2022/01/22 04:56:58;;;;;;;3.97;0.90;;;6.50;99.90;;;;;;5071902;28;20551;-80
2022/01/22 04:59:24;;;;;;;4.45;0.57;;;6.50;99.90;;;;;;5075789;28;20059;-81
2022/01/22 05:01:50;;;;;;;4.15;0.65;;;6.50;99.90;;;;;;5075039;28;20037;-82
2022/01/22 05:04:15;;;;;;;2.78;0.60;;;6.50;99.90;;;;;;5074980;28;20048;-76
2022/01/22 05:06:41;;;;;;;5.70;0.50;;;6.50;99.90;;;;;;5075177;28;20040;-69
2022/01/22 05:09:07;;;;;;;4.60;0.60;;;6.50;99.90;;;;;;5057520;28;20039;-69
2022/01/22 05:11:33;;;;;;;5.47;0.63;;;6.50;99.90;;;;;;5074345;28;20077;-77
2022/01/22 05:13:58;;;;;;;3.22;0.50;;;6.50;99.90;;;;;;5075157;28;20070;-76
2022/01/22 05:16:24;;;;;;;3.40;0.55;;;6.50;99.90;;;;;;5075219;28;20048;-80
2022/01/22 05:19:04;;;;;;;3.03;0.65;;;6.50;99.90;;;;;;5074220;28;20040;-79
2022/01/22 05:21:33;;;;;;;5.78;0.75;;;6.50;99.90;;;;;;5074442;28;20048;-69
2022/01/22 05:24:03;;;;;;;4.00;0.50;;;6.40;99.90;;;;;;5074941;28;20048;-79
2022/01/22 05:31:38;;;;;;;3.42;0.88;;;6.40;99.90;;;;;;5074005;28;20405;-79
2022/01/22 05:39:29;;;;;;;7.88;1.65;;;6.50;99.90;;;;;;5074187;28;20048;-79
2022/01/22 05:41:59;;;;;;;6.40;0.98;;;6.50;99.90;;;;;;5045119;28;20052;-80
2022/01/22 05:44:25;;;;;;;6.20;1.38;;;6.50;99.90;;;;;;5054913;28;20098;-79
2022/01/22 05:46:54;;;;;;;6.22;1.30;;;6.50;99.90;;;;;;5067211;28;20390;-75
2022/01/22 05:49:22;;;;;;;6.10;1.33;;;6.50;99.90;;;;;;5074645;28;20084;-79
2022/01/22 05:51:49;;;;;;;3.95;1.15;;;6.50;99.90;;;;;;5074111;28;20116;-78
2022/01/22 05:59:43;;;;;;;6.65;1.02;;;6.50;99.90;;;;;;5073861;28;20056;-75
2022/01/22 06:02:14;;;;;;;4.07;0.90;;;6.50;99.90;;;;;;5074257;28;20043;-77
2022/01/22 06:04:40;;;;;;;5.47;1.15;;;6.60;99.90;;;;;;5074115;28;20488;-78
2022/01/22 06:07:07;;;;;;;3.53;1.30;;;6.50;99.90;;;;;;5073697;28;20050;-77
2022/01/22 06:09:34;;;;;;;3.78;0.98;;;6.50;99.90;;;;;;5054194;28;20070;-77
2022/01/22 06:12:15;;;;;;;7.20;0.93;;;6.50;99.90;;;;;;5074279;28;20044;-78
2022/01/22 06:14:41;;;;;;;5.03;1.23;;;6.50;99.90;;;;;;5073204;28;20043;-78
2022/01/22 06:17:07;;;;;;;6.57;1.08;;;6.50;99.90;;;;;;5074738;28;20032;-68
2022/01/22 06:19:33;;;;;;;4.95;1.15;;;6.50;99.90;;;;;;5073523;28;20044;-77
2022/01/22 06:21:59;;;;;;;7.93;1.05;;;6.50;99.90;;;;;;5061960;28;20424;-78
2022/01/22 06:24:25;;;;;;;7.22;1.00;;;6.50;99.90;;;;;;5052910;28;20136;-78
2022/01/22 06:26:51;;;;;;;3.40;1.17;;;6.50;99.90;;;;;;5057300;28;20076;-78
2022/01/22 06:29:17;;;;;;;2.78;0.80;;;6.50;99.90;;;;;;5072762;28;20071;-78
2022/01/22 06:31:43;;;;;;;5.57;1.52;;;6.50;99.90;;;;;;5073634;28;20134;-78
2022/01/22 06:34:08;;;;;;;6.47;1.13;;;6.50;99.90;;;;;;5073522;28;20124;-76
2022/01/22 06:36:34;;;;;;;6.00;1.10;;;6.50;99.90;;;;;;5073184;28;20074;-78
2022/01/22 06:39:13;;;;;;;4.78;0.80;;;6.60;99.90;;;;;;5073791;28;20044;-79
2022/01/22 06:41:46;;;;;;;6.10;1.10;;;6.50;99.90;;;;;;5057034;28;20048;-79
2022/01/22 06:44:22;;;;;;;4.40;0.95;;;6.50;99.90;;;;;;5073339;28;20075;-69
2022/01/22 06:46:51;;;;;;;4.63;1.00;;;6.50;99.90;;;;;;5073275;28;20040;-80
2022/01/22 06:49:16;;;;;;;5.93;1.25;;;6.50;99.90;;;;;;5072567;28;20048;-71
2022/01/22 06:51:42;;;;;;;6.95;1.10;;;6.50;99.90;;;;;;5072533;28;20056;-80
2022/01/22 06:54:10;;;;;;;5.88;1.65;;;6.50;99.90;;;;;;5074217;28;20048;-75
2022/01/22 06:56:39;;;;;;;6.57;1.58;;;6.50;99.90;;;;;;5072692;28;20040;-71
2022/01/22 06:59:08;;;;;;;6.35;1.58;;;6.50;99.90;;;;;;5073676;28;20044;-73
2022/01/22 07:01:34;;;;;;;10.60;1.83;;;6.50;99.90;;;;;;5073159;28;20515;-80
2022/01/22 07:04:00;;;;;;;8.63;1.67;;;6.50;99.90;;;;;;5072643;28;20044;-80
2022/01/22 07:06:26;;;;;;;7.13;1.38;;;6.50;99.90;;;;;;5073047;28;20458;-70
2022/01/22 07:08:51;;;;;;;6.00;1.20;;;6.50;99.90;;;;;;5072691;28;20047;-70
2022/01/22 07:11:17;;;;;;;4.05;0.90;;;6.50;99.90;;;;;;5072449;28;20043;-80
2022/01/22 07:13:43;;;;;;;5.10;1.33;;;6.40;99.90;;;;;;5073152;28;20043;-71
2022/01/22 07:16:09;;;;;;;3.13;0.75;;;6.50;99.90;;;;;;5073322;28;20138;-80
2022/01/22 07:18:35;;;;;;;2.50;0.60;;;6.40;99.90;;;;;;5055523;28;20528;-74
2022/01/22 07:21:09;;;;;;;2.03;0.57;;;6.40;99.90;;;;;;5072767;28;20044;-71
2022/01/22 07:26:04;;;;;;;2.78;0.73;;;6.40;99.90;;;;;;5072270;28;20136;-80
2022/01/22 07:28:30;;;;;;;5.25;0.80;;;6.40;99.90;;;;;;5056232;28;20397;-80
2022/01/22 07:30:56;;;;;;;2.58;0.68;;;6.30;99.90;;;;;;5072340;28;20063;-69
2022/01/22 07:33:22;;;;;;;3.35;0.55;;;6.30;99.90;;;;;;5072585;28;20050;-79
2022/01/22 07:35:48;;;;;;;5.75;0.63;;;6.30;99.90;;;;;;5056077;28;20135;-79
2022/01/22 07:38:14;;;;;;;4.55;0.50;;;6.30;99.90;;;;;;5072218;28;20028;-79
2022/01/22 07:40:40;;;;;;;3.83;0.52;;;6.30;99.90;;;;;;5072373;28;20081;-78
2022/01/22 07:43:05;;;;;;;7.75;0.38;;;6.30;99.90;;;;;;5074698;28;20075;-69
2022/01/22 07:45:31;;;;;;;3.35;0.40;;;6.30;99.90;;;;;;5076361;28;20044;-72
2022/01/22 07:47:57;;;;;;;4.72;0.40;;;6.30;99.90;;;;;;5076702;28;20044;-78
2022/01/22 07:50:23;;;;;;;2.53;0.30;;;6.30;99.90;;;;;;5076740;28;20059;-82
2022/01/22 07:52:48;;;;;;;6.15;0.20;;;6.30;99.90;;;;;;5076097;28;20557;-78
2022/01/22 07:55:16;;;;;;;1.38;0.20;;;6.30;99.90;;;;;;5059512;28;20044;-78
2022/01/22 07:57:42;;;;;;;3.67;0.32;;;6.30;99.90;;;;;;5076553;28;20114;-74
2022/01/22 08:00:08;;;;;;;2.13;0.20;;;6.30;99.90;;;;;;5058010;28;20603;-70
2022/01/22 08:02:34;;;;;;;4.18;0.32;;;6.40;99.90;;;;;;5076506;28;20091;-81
2022/01/22 08:05:00;;;;;;;2.85;0.40;;;6.30;99.90;;;;;;5046092;28;20084;-83
2022/01/22 08:07:25;;;;;;;3.35;0.40;;;6.30;99.90;;;;;;5057448;28;20489;-71
2022/01/22 08:09:51;;;;;;;3.97;0.30;;;6.30;99.90;;;;;;5059644;28;20083;-77
2022/01/22 08:12:17;;;;;;;7.28;0.55;;;6.30;99.90;;;;;;5060013;28;20063;-72
2022/01/22 08:14:43;;;;;;;2.45;0.20;;;6.40;99.90;;;;;;5053187;28;20113;-77
2022/01/22 08:17:09;;;;;;;1.88;0.40;;;6.40;99.90;;;;;;5076828;28;20048;-76
2022/01/22 08:19:35;;;;;;;3.97;0.47;;;6.30;99.90;;;;;;5075897;28;20043;-71
2022/01/22 08:22:01;;;;;;;5.60;0.70;;;6.40;99.90;;;;;;5075365;28;20161;-71
2022/01/22 08:24:27;;;;;;;5.60;1.17;;;6.40;99.90;;;;;;5075841;28;20048;-70
2022/01/22 08:27:10;;;;;;;3.25;1.00;;;6.40;99.90;;;;;;5076311;28;20438;-76
2022/01/22 08:29:36;;;;;;;2.80;0.60;;;6.40;99.90;;;;;;5094323;28;20373;-70
2022/01/22 08:32:23;;;;;;;5.07;1.52;;;6.40;99.90;;;;;;5076054;28;20123;-83
2022/01/22 08:37:33;;;;;;;4.15;1.40;;;6.40;99.90;;;;;;5073306;28;20052;-76
2022/01/22 08:40:00;;;;;;;5.88;1.20;;;6.50;99.90;;;;;;5039417;28;20094;-75
2022/01/22 08:42:26;;;;;;;6.00;1.17;;;6.50;99.90;;;;;;5072838;28;20032;-76
2022/01/22 08:44:52;;;;;;;5.82;1.67;;;6.60;99.90;;;;;;5075695;28;20047;-77
2022/01/22 08:47:17;;;;;;;9.43;1.30;;;6.60;99.90;;;;;;5075167;28;20069;-76
2022/01/22 08:49:43;;;;;;;6.65;1.20;;;6.60;99.90;;;;;;5072775;28;20105;-75
2022/01/22 08:52:15;;;;;;;4.55;0.77;;;6.60;99.90;;;;;;5074583;28;20047;-71
2022/01/22 08:54:42;;;;;;;6.25;0.82;;;6.60;99.90;;;;;;5074857;28;20067;-71
2022/01/22 08:57:08;;;;;;;6.18;1.02;;;6.60;99.90;;;;;;5075074;28;20094;-77
2022/01/22 08:59:34;;;;;;;6.80;0.95;;;6.70;99.90;;;;;;5074776;28;20048;-74
2022/01/22 09:02:00;;;;;;;4.70;0.52;;;6.70;99.90;;;;;;5075170;28;20051;-76
2022/01/22 09:04:26;;;;;;;8.68;1.33;;;6.70;99.90;;;;;;5074220;28;20063;-71
2022/01/22 09:06:52;;;;;;;10.25;1.33;;;6.70;99.90;;;;;;5056991;28;20035;-77
2022/01/22 09:09:18;;;;;;;5.95;1.10;;;6.70;99.90;;;;;;5074905;28;20128;-72
2022/01/22 09:11:45;;;;;;;6.97;1.05;;;6.70;99.90;;;;;;5075413;28;20048;-77
2022/01/22 09:14:13;;;;;;;5.95;1.02;;;6.70;99.90;;;;;;5054812;28;20382;-82
2022/01/22 09:16:40;;;;;;;9.93;1.08;;;6.80;99.90;;;;;;5074441;28;20051;-80
2022/01/22 09:19:09;;;;;;;6.57;1.33;;;6.80;99.90;;;;;;5058222;28;20051;-72
2022/01/22 09:21:46;;;;;;;9.63;0.77;;;6.80;99.90;;;;;;5073119;28;20389;-72
2022/01/22 09:24:15;;;;;;;9.73;1.40;;;6.80;99.90;;;;;;5056337;28;20039;-80
2022/01/22 09:26:42;;;;;;;6.53;1.02;;;6.80;99.90;;;;;;5057986;28;20396;-70
2022/01/22 09:29:08;;;;;;;10.38;1.23;;;6.80;99.90;;;;;;5074885;28;20117;-70
2022/01/22 09:31:34;;;;;;;10.20;1.20;;;6.80;99.90;;;;;;5074111;28;20048;-78
2022/01/22 09:34:01;;;;;;;10.63;1.15;;;6.80;99.90;;;;;;5046158;28;20043;-80
2022/01/22 09:36:28;;;;;;;9.52;1.55;;;6.80;99.90;;;;;;5043303;28;20481;-80
2022/01/22 09:38:55;;;;;;;8.80;1.20;;;6.90;99.90;;;;;;5072625;28;20496;-80
2022/01/22 09:41:22;;;;;;;6.95;1.20;;;6.90;99.90;;;;;;5090577;28;20493;-70
2022/01/22 09:43:49;;;;;;;5.70;1.00;;;6.90;99.90;;;;;;5052662;28;20080;-75
2022/01/22 09:46:15;;;;;;;7.53;1.20;;;6.90;99.90;;;;;;5057078;28;20047;-80
2022/01/22 09:48:45;;;;;;;7.78;0.93;;;6.90;99.90;;;;;;5074624;28;20129;-81
2022/01/22 09:51:12;;;;;;;9.35;1.23;;;6.90;99.90;;;;;;5057942;28;20545;-80
2022/01/22 09:53:43;;;;;;;6.07;1.50;;;6.90;99.90;;;;;;5074236;28;20100;-79
2022/01/22 09:56:09;;;;;;;11.98;1.30;;;6.90;99.90;;;;;;5056571;28;20062;-80
2022/01/22 09:58:35;;;;;;;8.82;1.33;;;6.90;99.90;;;;;;5078084;28;20044;-74
2022/01/22 10:01:37;;;;;;;9.63;1.20;;;6.90;99.90;;;;;;5074285;28;20062;-80
2022/01/22 10:04:08;;;;;;;8.98;1.13;;;7.00;99.90;;;;;;5016945;28;20044;-80
2022/01/22 10:06:49;;;;;;;9.15;1.98;;;7.00;99.90;;;;;;5065423;28;20102;-80
2022/01/22 10:09:25;;;;;;;9.50;1.58;;;7.00;99.90;;;;;;5074424;28;20083;-81
2022/01/22 10:12:11;;;;;;;10.00;1.60;;;7.00;99.90;;;;;;5074078;28;20572;-71
2022/01/22 10:15:02;;;;;;;8.55;1.55;;;7.10;99.90;;;;;;5073630;28;20044;-80
2022/01/22 10:17:43;;;;;;;11.00;1.60;;;7.10;99.90;;;;;;5078767;28;20064;-80
2022/01/22 10:20:31;;;;;;;11.15;1.73;;;7.10;99.90;;;;;;5057397;28;20253;-81
2022/01/22 10:22:59;;;;;;;8.32;1.90;;;7.20;99.90;;;;;;5074439;28;20073;-77
2022/01/22 10:25:31;;;;;;;10.02;1.50;;;7.10;99.90;;;;;;5073144;28;20048;-72
2022/01/22 10:28:22;;;;;;;11.02;1.45;;;7.10;99.90;;;;;;5057131;28;20511;-70
2022/01/22 10:30:54;;;;;;;7.35;1.55;;;7.20;99.90;;;;;;5073921;28;20142;-80
2022/01/22 10:33:27;;;;;;;6.10;1.13;;;7.20;99.90;;;;;;5056256;28;20605;-80
2022/01/22 10:36:18;;;;;;;7.22;1.10;;;7.20;99.90;;;;;;5056978;28;20581;-80
2022/01/22 10:38:46;;;;;;;16.63;1.70;;;7.30;99.90;;;;;;5067364;28;20056;-80
2022/01/22 10:41:14;;;;;;;8.15;1.65;;;7.30;99.90;;;;;;5057033;28;20480;-80
2022/01/22 10:43:51;;;;;;;6.47;1.55;;;7.30;99.90;;;;;;5073646;28;20063;-80
2022/01/22 10:46:31;;;;;;;13.65;1.92;;;7.30;99.90;;;;;;5056372;28;20044;-74
2022/01/22 10:49:01;;;;;;;6.53;1.50;;;7.30;99.90;;;;;;5056987;28;20442;-70
2022/01/22 10:51:28;;;;;;;8.18;1.80;;;7.30;99.90;;;;;;5073453;28;20040;-71
2022/01/22 10:54:00;;;;;;;7.45;1.98;;;7.40;99.90;;;;;;5072809;28;20043;-80
2022/01/22 10:56:28;;;;;;;8.38;2.08;;;7.40;99.90;;;;;;5073468;28;20043;-70
2022/01/22 10:58:54;;;;;;;7.75;1.95;;;7.40;99.90;;;;;;5073398;28;20189;-80
2022/01/22 11:01:20;;;;;;;12.18;2.05;;;7.40;99.90;;;;;;5072531;28;20542;-80
2022/01/22 11:03:46;;;;;;;6.45;1.73;;;7.40;99.90;;;;;;5073405;28;20044;-71
2022/01/22 11:06:27;;;;;;;12.40;1.88;;;7.40;99.90;;;;;;5042203;28;20539;-80
2022/01/22 11:08:54;;;;;;;10.35;2.83;;;7.40;99.90;;;;;;5064438;28;20557;-80
2022/01/22 11:11:20;;;;;;;10.18;2.33;;;7.50;99.90;;;;;;5073097;28;20126;-83
2022/01/22 11:13:45;;;;;;;11.45;2.55;;;7.40;99.90;;;;;;5072605;28;20115;-73
2022/01/22 11:16:13;;;;;;;10.65;2.38;;;7.50;99.90;;;;;;5071874;28;20605;-80
2022/01/22 11:18:43;;;;;;;13.10;3.10;;;7.50;99.90;;;;;;5054513;28;20055;-81
2022/01/22 11:21:10;;;;;;;9.68;3.45;;;7.50;99.90;;;;;;5053672;28;20056;-83
2022/01/22 11:23:36;;;;;;;11.65;3.20;;;7.50;99.90;;;;;;5054402;28;20110;-80
2022/01/22 11:26:02;;;;;;;11.27;2.95;;;7.50;99.90;;;;;;5055860;28;20048;-77
2022/01/22 11:28:29;;;;;;;10.75;3.50;;;7.50;99.90;;;;;;5055439;28;20512;-77
2022/01/22 11:30:57;;;;;;;8.32;2.50;;;7.60;99.90;;;;;;5073203;28;20397;-82
2022/01/22 11:33:25;;;;;;;9.02;2.60;;;7.60;99.90;;;;;;5045707;28;20508;-81
2022/01/22 11:36:16;;;;;;;10.73;3.55;;;7.60;99.90;;;;;;5071414;28;20489;-75
2022/01/22 11:38:51;;;;;;;9.70;2.88;;;7.60;99.90;;;;;;5072683;28;20523;-80
2022/01/22 11:41:21;;;;;;;10.15;2.67;;;7.60;99.90;;;;;;5055649;28;20059;-79
2022/01/22 11:44:00;;;;;;;11.75;3.40;;;7.60;99.90;;;;;;5072418;28;20117;-72
2022/01/22 11:46:34;;;;;;;12.18;4.50;;;7.70;99.90;;;;;;5072383;28;20056;-80
2022/01/22 11:49:21;;;;;;;14.82;5.43;;;7.60;99.90;;;;;;5072234;28;20484;-80
2022/01/22 11:52:14;;;;;;;15.02;6.53;;;7.60;99.90;;;;;;5072374;28;20047;-81
2022/01/22 11:54:54;;;;;;;17.80;7.05;;;7.60;99.90;;;;;;5056218;28;20044;-80
2022/01/22 11:57:22;;;;;;;11.52;7.28;;;7.60;99.90;;;;;;5057269;28;20036;-80
2022/01/22 12:00:08;;;;;;;16.52;7.00;;;7.60;99.90;;;;;;5072891;28;20072;-71
2022/01/22 12:02:34;;;;;;;14.75;6.57;;;7.60;99.90;;;;;;5059261;28;20500;-79
2022/01/22 12:05:04;;;;;;;11.57;4.57;;;7.60;99.90;;;;;;5066775;28;20044;-81
2022/01/22 12:07:35;;;;;;;10.63;4.75;;;7.70;99.90;;;;;;5071647;28;20063;-78
2022/01/22 12:15:52;;;;;;;12.18;3.42;;;7.60;99.90;;;;;;5047798;28;20045;-80
2022/01/22 12:18:29;;;;;;;9.80;2.15;;;7.70;99.90;;;;;;5069667;28;20040;-75
2022/01/22 12:23:29;;;;;;;7.13;1.98;;;7.70;99.90;;;;;;5071640;28;20048;-81
2022/01/22 12:25:55;;;;;;;7.82;1.33;;;7.70;99.90;;;;;;5054865;28;20131;-70
2022/01/22 12:28:40;;;;;;;6.80;1.40;;;7.70;99.90;;;;;;5067704;28;20035;-81
2022/01/22 12:31:15;;;;;;;8.68;1.17;;;7.70;99.90;;;;;;5077046;28;20055;-72
2022/01/22 12:33:41;;;;;;;7.90;1.00;;;7.70;99.90;;;;;;5070596;28;20077;-82
2022/01/22 12:36:18;;;;;;;4.50;0.85;;;7.70;99.90;;;;;;5094740;28;20403;-80
2022/01/22 12:38:56;;;;;;;6.15;0.90;;;7.60;99.90;;;;;;5075158;28;20044;-80
2022/01/22 12:44:12;;;;;;;5.15;0.90;;;7.70;99.90;;;;;;5056622;28;20515;-79
2022/01/22 12:46:39;;;;;;;5.32;0.75;;;7.70;99.90;;;;;;5056753;28;20052;-74
2022/01/22 12:49:06;;;;;;;7.07;0.90;;;7.70;99.90;;;;;;5059455;28;20052;-78
2022/01/22 12:51:34;;;;;;;5.47;0.52;;;7.70;99.90;;;;;;5075419;28;20123;-79
2022/01/22 12:54:00;;;;;;;5.47;0.93;;;7.70;99.90;;;;;;5038860;28;20048;-79
2022/01/22 12:59:08;;;;;;;5.45;0.50;;;7.70;99.90;;;;;;5075939;28;20048;-78
2022/01/22 13:01:35;;;;;;;10.68;0.55;;;7.70;99.90;;;;;;5070121;28;20044;-79
2022/01/22 13:04:06;;;;;;;4.53;0.50;;;7.70;99.90;;;;;;5059053;28;20040;-79
2022/01/22 13:06:52;;;;;;;4.28;0.60;;;7.70;99.90;;;;;;5058030;28;20404;-79
2022/01/22 13:09:18;;;;;;;8.45;0.30;;;7.70;99.90;;;;;;5075647;28;20051;-79
2022/01/22 13:11:49;;;;;;;3.83;0.35;;;7.70;99.90;;;;;;5071735;28;20497;-79
2022/01/22 13:14:29;;;;;;;7.65;0.50;;;7.70;99.90;;;;;;5071391;28;20052;-78
2022/01/22 13:16:57;;;;;;;8.73;0.45;;;7.70;99.90;;;;;;5055529;28;20083;-73
2022/01/22 13:19:28;;;;;;;5.57;0.40;;;7.70;99.90;;;;;;5068381;28;20451;-80
2022/01/22 13:21:59;;;;;;;6.65;0.30;;;7.70;99.90;;;;;;5075113;28;20438;-79
2022/01/22 13:24:27;;;;;;;4.70;0.40;;;7.70;99.90;;;;;;5075045;28;20500;-73
2022/01/22 13:27:08;;;;;;;3.22;0.32;;;7.70;99.90;;;;;;5075556;28;20046;-78
2022/01/22 13:29:52;;;;;;;3.95;0.55;;;7.70;99.90;;;;;;5074287;28;20091;-79
2022/01/22 13:32:46;;;;;;;7.25;1.10;;;7.70;99.90;;;;;;5074943;28;20044;-79
2022/01/22 13:38:32;;;;;;;4.95;0.30;;;7.70;99.90;;;;;;5074572;28;20098;-77
2022/01/22 13:49:26;;;;;;;8.23;0.60;;;7.80;99.90;;;;;;5073845;28;20056;-78
2022/01/22 13:51:58;;;;;;;5.50;0.70;;;7.80;99.90;;;;;;5073260;28;20040;-78
2022/01/22 13:54:33;;;;;;;5.60;0.45;;;7.80;99.90;;;;;;5074507;28;20412;-78
2022/01/22 13:57:05;;;;;;;5.50;0.40;;;7.70;99.90;;;;;;5054201;28;20052;-78
2022/01/22 13:59:35;;;;;;;6.38;0.43;;;7.70;99.90;;;;;;5054876;28;20044;-77
2022/01/22 14:04:59;;;;;;;8.98;0.75;;;7.60;99.90;;;;;;5073572;28;20052;-72
2022/01/22 14:07:40;;;;;;;4.95;0.47;;;7.60;99.90;;;;;;5074558;28;20044;-78
2022/01/22 14:10:12;;;;;;;6.05;0.32;;;7.70;99.90;;;;;;5073863;28;20040;-72
2022/01/22 14:12:59;;;;;;;5.53;0.47;;;7.60;99.90;;;;;;5074862;28;20048;-72
2022/01/22 14:15:40;;;;;;;4.88;0.40;;;7.60;99.90;;;;;;5073777;28;20048;-77
2022/01/22 14:20:43;;;;;;;;;;;7.50;99.90;;;;;;5074517;28;20083;-77
2022/01/22 14:23:10;;;;;;;6.35;0.40;;;7.50;99.90;;;;;;5057743;28;19996;-77
2022/01/22 14:25:54;;;;;;;7.68;0.60;;;7.50;99.90;;;;;;5055385;28;20044;-73
2022/01/22 14:28:23;;;;;;;7.55;0.47;;;7.50;99.90;;;;;;5073334;28;20036;-77
2022/01/22 14:30:49;;;;;;;6.45;0.40;;;7.50;99.90;;;;;;5057443;28;20124;-76
2022/01/22 14:33:18;;;;;;;8.63;0.40;;;7.50;99.90;;;;;;5073199;28;20044;-73
2022/01/22 14:35:58;;;;;;;6.57;0.38;;;7.60;99.90;;;;;;5074080;28;20040;-80
2022/01/22 14:38:33;;;;;;;8.32;0.60;;;7.50;99.90;;;;;;5072863;28;20090;-78
2022/01/22 14:44:03;;;;;;;4.95;0.30;;;7.50;99.90;;;;;;5073143;28;20056;-78
2022/01/22 14:46:41;;;;;;;5.20;0.32;;;7.50;99.90;;;;;;5073165;28;20051;-77
2022/01/22 14:49:06;;;;;;;10.13;0.50;;;7.50;99.90;;;;;;5073137;28;20496;-73
2022/01/22 14:51:32;;;;;;;5.20;0.43;;;7.50;99.90;;;;;;5073162;28;20123;-78
2022/01/22 14:53:57;;;;;;;7.30;0.73;;;7.50;99.90;;;;;;5071593;28;20040;-78
2022/01/22 14:56:23;;;;;;;7.90;0.88;;;7.50;99.90;;;;;;5056939;28;20083;-73
2022/01/22 14:58:49;;;;;;;6.78;0.60;;;7.50;99.90;;;;;;5054872;28;20055;-78
2022/01/22 15:01:14;;;;;;;4.78;0.55;;;7.50;99.90;;;;;;5073163;28;20052;-78
2022/01/22 15:03:40;;;;;;;4.70;0.60;;;7.50;99.90;;;;;;5072908;28;20052;-77
2022/01/22 15:06:05;;;;;;;5.95;0.52;;;7.40;99.90;;;;;;5073310;28;20435;-73
2022/01/22 15:08:31;;;;;;;4.07;0.60;;;7.40;99.90;;;;;;5069263;28;20769;-80